sensor_id;sensor_type;location;lat;lon;timestamp;P1;durP1;ratioP1;P2;durP2;ratioP2
24259;SDS011;12384;48.112;18.418;2023-02-15T00:00:39;17.47;;;15.83;;
24259;SDS011;12384;48.112;18.418;2023-02-15T00:03:07;17.03;;;15.33;;
24259;SDS011;12384;48.112;18.418;2023-02-15T00:05:36;16.43;;;14.83;;
24259;SDS011;12384;48.112;18.418;2023-02-15T00:08:04;14.40;;;13.20;;
24259;SDS011;12384;48.112;18.418;2023-02-15T00:10:33;16.77;;;15.07;;
24259;SDS011;12384;48.112;18.418;2023-02-15T00:13:02;18.97;;;17.00;;
24259;SDS011;12384;48.112;18.418;2023-02-15T00:15:31;19.87;;;17.83;;
24259;SDS011;12384;48.112;18.418;2023-02-15T00:17:59;18.23;;;16.57;;
24259;SDS011;12384;48.112;18.418;2023-02-15T00:20:27;16.07;;;14.67;;
24259;SDS011;12384;48.112;18.418;2023-02-15T00:22:56;18.57;;;16.60;;
24259;SDS011;12384;48.112;18.418;2023-02-15T00:25:24;16.10;;;14.67;;
24259;SDS011;12384;48.112;18.418;2023-02-15T00:27:52;15.83;;;14.40;;
24259;SDS011;12384;48.112;18.418;2023-02-15T00:30:22;16.07;;;14.53;;
24259;SDS011;12384;48.112;18.418;2023-02-15T00:32:50;22.47;;;20.00;;
24259;SDS011;12384;48.112;18.418;2023-02-15T00:35:19;17.30;;;15.63;;
24259;SDS011;12384;48.112;18.418;2023-02-15T00:37:47;16.73;;;15.13;;
24259;SDS011;12384;48.112;18.418;2023-02-15T00:40:16;16.00;;;14.50;;
24259;SDS011;12384;48.112;18.418;2023-02-15T00:42:44;19.63;;;17.50;;
24259;SDS011;12384;48.112;18.418;2023-02-15T00:45:14;16.70;;;15.20;;
24259;SDS011;12384;48.112;18.418;2023-02-15T00:47:45;20.87;;;18.40;;
24259;SDS011;12384;48.112;18.418;2023-02-15T00:50:14;17.80;;;16.10;;
24259;SDS011;12384;48.112;18.418;2023-02-15T00:52:45;18.63;;;16.70;;
24259;SDS011;12384;48.112;18.418;2023-02-15T00:55:13;19.33;;;17.33;;
24259;SDS011;12384;48.112;18.418;2023-02-15T00:57:42;19.07;;;17.20;;
24259;SDS011;12384;48.112;18.418;2023-02-15T01:00:10;18.13;;;16.33;;
24259;SDS011;12384;48.112;18.418;2023-02-15T01:02:40;18.50;;;16.60;;
24259;SDS011;12384;48.112;18.418;2023-02-15T01:05:09;19.07;;;17.23;;
24259;SDS011;12384;48.112;18.418;2023-02-15T01:07:39;17.50;;;15.90;;
24259;SDS011;12384;48.112;18.418;2023-02-15T01:10:07;16.97;;;15.47;;
24259;SDS011;12384;48.112;18.418;2023-02-15T01:12:36;19.07;;;17.17;;
24259;SDS011;12384;48.112;18.418;2023-02-15T01:15:05;22.87;;;20.30;;
24259;SDS011;12384;48.112;18.418;2023-02-15T01:17:36;18.87;;;17.03;;
24259;SDS011;12384;48.112;18.418;2023-02-15T01:20:04;17.20;;;15.57;;
24259;SDS011;12384;48.112;18.418;2023-02-15T01:22:35;18.37;;;16.63;;
24259;SDS011;12384;48.112;18.418;2023-02-15T01:25:03;17.97;;;16.37;;
24259;SDS011;12384;48.112;18.418;2023-02-15T01:27:32;17.60;;;15.90;;
24259;SDS011;12384;48.112;18.418;2023-02-15T01:30:01;18.77;;;16.80;;
24259;SDS011;12384;48.112;18.418;2023-02-15T01:32:31;17.13;;;15.50;;
24259;SDS011;12384;48.112;18.418;2023-02-15T01:34:59;21.70;;;18.73;;
24259;SDS011;12384;48.112;18.418;2023-02-15T01:37:29;18.63;;;16.93;;
24259;SDS011;12384;48.112;18.418;2023-02-15T01:39:59;18.90;;;17.10;;
24259;SDS011;12384;48.112;18.418;2023-02-15T01:42:29;17.73;;;16.10;;
24259;SDS011;12384;48.112;18.418;2023-02-15T01:44:58;19.37;;;17.47;;
24259;SDS011;12384;48.112;18.418;2023-02-15T01:47:29;22.70;;;20.30;;
24259;SDS011;12384;48.112;18.418;2023-02-15T01:50:06;19.00;;;17.10;;
24259;SDS011;12384;48.112;18.418;2023-02-15T01:52:38;19.63;;;17.53;;
24259;SDS011;12384;48.112;18.418;2023-02-15T01:55:15;18.63;;;16.73;;
24259;SDS011;12384;48.112;18.418;2023-02-15T01:57:44;23.43;;;20.60;;
24259;SDS011;12384;48.112;18.418;2023-02-15T02:00:14;21.33;;;19.20;;
24259;SDS011;12384;48.112;18.418;2023-02-15T02:02:46;18.77;;;17.07;;
24259;SDS011;12384;48.112;18.418;2023-02-15T02:05:23;20.27;;;18.10;;
24259;SDS011;12384;48.112;18.418;2023-02-15T02:07:52;24.03;;;19.97;;
24259;SDS011;12384;48.112;18.418;2023-02-15T02:10:25;26.87;;;21.33;;
24259;SDS011;12384;48.112;18.418;2023-02-15T02:12:58;27.63;;;22.90;;
24259;SDS011;12384;48.112;18.418;2023-02-15T02:15:33;22.80;;;20.50;;
24259;SDS011;12384;48.112;18.418;2023-02-15T02:18:12;23.07;;;20.67;;
24259;SDS011;12384;48.112;18.418;2023-02-15T02:21:01;20.77;;;18.77;;
24259;SDS011;12384;48.112;18.418;2023-02-15T02:23:57;20.20;;;18.27;;
24259;SDS011;12384;48.112;18.418;2023-02-15T02:30:02;22.80;;;19.80;;
24259;SDS011;12384;48.112;18.418;2023-02-15T02:33:18;25.40;;;20.63;;
24259;SDS011;12384;48.112;18.418;2023-02-15T02:35:57;22.67;;;20.27;;
24259;SDS011;12384;48.112;18.418;2023-02-15T02:38:37;19.60;;;17.60;;
24259;SDS011;12384;48.112;18.418;2023-02-15T02:41:17;24.80;;;20.00;;
24259;SDS011;12384;48.112;18.418;2023-02-15T02:43:54;24.87;;;21.70;;
24259;SDS011;12384;48.112;18.418;2023-02-15T02:46:32;26.80;;;22.30;;
24259;SDS011;12384;48.112;18.418;2023-02-15T02:49:06;20.00;;;18.03;;
24259;SDS011;12384;48.112;18.418;2023-02-15T02:51:34;20.67;;;18.37;;
24259;SDS011;12384;48.112;18.418;2023-02-15T02:54:04;18.57;;;16.37;;
24259;SDS011;12384;48.112;18.418;2023-02-15T02:56:36;21.43;;;18.07;;
24259;SDS011;12384;48.112;18.418;2023-02-15T02:59:07;22.67;;;20.20;;
24259;SDS011;12384;48.112;18.418;2023-02-15T03:01:41;22.10;;;19.70;;
24259;SDS011;12384;48.112;18.418;2023-02-15T03:04:15;18.77;;;16.83;;
24259;SDS011;12384;48.112;18.418;2023-02-15T03:06:50;19.70;;;17.80;;
24259;SDS011;12384;48.112;18.418;2023-02-15T03:09:21;20.07;;;18.07;;
24259;SDS011;12384;48.112;18.418;2023-02-15T03:12:08;23.07;;;20.57;;
24259;SDS011;12384;48.112;18.418;2023-02-15T03:14:44;21.77;;;17.63;;
24259;SDS011;12384;48.112;18.418;2023-02-15T03:17:16;28.13;;;20.70;;
24259;SDS011;12384;48.112;18.418;2023-02-15T03:19:48;28.80;;;21.17;;
24259;SDS011;12384;48.112;18.418;2023-02-15T03:22:20;23.07;;;18.43;;
24259;SDS011;12384;48.112;18.418;2023-02-15T03:24:55;25.33;;;19.73;;
24259;SDS011;12384;48.112;18.418;2023-02-15T03:27:27;25.03;;;20.33;;
24259;SDS011;12384;48.112;18.418;2023-02-15T03:30:00;24.67;;;20.40;;
24259;SDS011;12384;48.112;18.418;2023-02-15T03:32:32;20.30;;;17.63;;
24259;SDS011;12384;48.112;18.418;2023-02-15T03:35:03;26.30;;;20.73;;
24259;SDS011;12384;48.112;18.418;2023-02-15T03:37:33;20.90;;;18.23;;
24259;SDS011;12384;48.112;18.418;2023-02-15T03:40:06;20.80;;;18.70;;
24259;SDS011;12384;48.112;18.418;2023-02-15T03:42:59;21.07;;;18.80;;
24259;SDS011;12384;48.112;18.418;2023-02-15T03:45:31;23.37;;;20.20;;
24259;SDS011;12384;48.112;18.418;2023-02-15T03:48:03;24.97;;;21.07;;
24259;SDS011;12384;48.112;18.418;2023-02-15T03:50:36;39.53;;;28.43;;
24259;SDS011;12384;48.112;18.418;2023-02-15T03:53:24;27.37;;;22.47;;
24259;SDS011;12384;48.112;18.418;2023-02-15T03:55:54;22.93;;;20.53;;
24259;SDS011;12384;48.112;18.418;2023-02-15T03:58:23;23.63;;;19.37;;
24259;SDS011;12384;48.112;18.418;2023-02-15T04:01:10;24.80;;;20.97;;
24259;SDS011;12384;48.112;18.418;2023-02-15T04:04:06;21.80;;;19.40;;
24259;SDS011;12384;48.112;18.418;2023-02-15T04:06:39;22.93;;;19.23;;
24259;SDS011;12384;48.112;18.418;2023-02-15T04:09:07;20.63;;;18.53;;
24259;SDS011;12384;48.112;18.418;2023-02-15T04:11:53;31.77;;;23.50;;
24259;SDS011;12384;48.112;18.418;2023-02-15T04:14:22;35.67;;;26.90;;
24259;SDS011;12384;48.112;18.418;2023-02-15T04:17:08;34.70;;;25.80;;
24259;SDS011;12384;48.112;18.418;2023-02-15T04:19:36;26.07;;;23.33;;
24259;SDS011;12384;48.112;18.418;2023-02-15T04:22:24;27.13;;;23.50;;
24259;SDS011;12384;48.112;18.418;2023-02-15T04:25:10;23.63;;;20.90;;
24259;SDS011;12384;48.112;18.418;2023-02-15T04:27:39;27.50;;;21.50;;
24259;SDS011;12384;48.112;18.418;2023-02-15T04:30:10;27.83;;;23.00;;
24259;SDS011;12384;48.112;18.418;2023-02-15T04:32:39;27.57;;;23.47;;
24259;SDS011;12384;48.112;18.418;2023-02-15T04:35:08;23.20;;;20.77;;
24259;SDS011;12384;48.112;18.418;2023-02-15T04:37:39;21.97;;;19.87;;
24259;SDS011;12384;48.112;18.418;2023-02-15T04:40:09;24.83;;;20.50;;
24259;SDS011;12384;48.112;18.418;2023-02-15T04:42:39;20.77;;;18.53;;
24259;SDS011;12384;48.112;18.418;2023-02-15T04:45:08;22.73;;;20.43;;
24259;SDS011;12384;48.112;18.418;2023-02-15T04:47:36;30.67;;;25.43;;
24259;SDS011;12384;48.112;18.418;2023-02-15T04:50:05;22.77;;;20.37;;
24259;SDS011;12384;48.112;18.418;2023-02-15T04:52:34;24.87;;;21.80;;
24259;SDS011;12384;48.112;18.418;2023-02-15T04:55:04;35.73;;;27.60;;
24259;SDS011;12384;48.112;18.418;2023-02-15T04:57:33;27.60;;;22.93;;
24259;SDS011;12384;48.112;18.418;2023-02-15T05:00:01;28.60;;;24.10;;
24259;SDS011;12384;48.112;18.418;2023-02-15T05:02:30;24.67;;;21.93;;
24259;SDS011;12384;48.112;18.418;2023-02-15T05:04:58;22.23;;;19.87;;
24259;SDS011;12384;48.112;18.418;2023-02-15T05:07:26;23.80;;;21.33;;
24259;SDS011;12384;48.112;18.418;2023-02-15T05:09:55;22.80;;;20.50;;
24259;SDS011;12384;48.112;18.418;2023-02-15T05:12:25;27.47;;;22.07;;
24259;SDS011;12384;48.112;18.418;2023-02-15T05:14:53;25.33;;;20.87;;
24259;SDS011;12384;48.112;18.418;2023-02-15T05:17:21;23.40;;;20.77;;
24259;SDS011;12384;48.112;18.418;2023-02-15T05:19:50;22.03;;;19.83;;
24259;SDS011;12384;48.112;18.418;2023-02-15T05:22:18;20.87;;;18.73;;
24259;SDS011;12384;48.112;18.418;2023-02-15T05:24:46;22.63;;;20.33;;
24259;SDS011;12384;48.112;18.418;2023-02-15T05:27:39;23.13;;;20.83;;
24259;SDS011;12384;48.112;18.418;2023-02-15T05:30:25;26.73;;;22.60;;
24259;SDS011;12384;48.112;18.418;2023-02-15T05:32:54;21.37;;;19.27;;
24259;SDS011;12384;48.112;18.418;2023-02-15T05:35:22;23.47;;;20.57;;
24259;SDS011;12384;48.112;18.418;2023-02-15T05:37:50;31.43;;;23.63;;
24259;SDS011;12384;48.112;18.418;2023-02-15T05:40:19;33.97;;;23.67;;
24259;SDS011;12384;48.112;18.418;2023-02-15T05:42:49;34.63;;;23.83;;
24259;SDS011;12384;48.112;18.418;2023-02-15T05:45:17;28.97;;;22.07;;
24259;SDS011;12384;48.112;18.418;2023-02-15T05:47:46;33.37;;;22.63;;
24259;SDS011;12384;48.112;18.418;2023-02-15T05:50:14;38.00;;;24.80;;
24259;SDS011;12384;48.112;18.418;2023-02-15T05:52:43;43.10;;;28.17;;
24259;SDS011;12384;48.112;18.418;2023-02-15T05:55:11;34.73;;;22.83;;
24259;SDS011;12384;48.112;18.418;2023-02-15T05:57:39;26.40;;;21.50;;
24259;SDS011;12384;48.112;18.418;2023-02-15T06:00:10;26.90;;;21.73;;
24259;SDS011;12384;48.112;18.418;2023-02-15T06:02:41;37.43;;;26.70;;
24259;SDS011;12384;48.112;18.418;2023-02-15T06:05:10;43.10;;;28.33;;
24259;SDS011;12384;48.112;18.418;2023-02-15T06:07:38;31.00;;;24.87;;
24259;SDS011;12384;48.112;18.418;2023-02-15T06:10:07;36.20;;;26.57;;
24259;SDS011;12384;48.112;18.418;2023-02-15T06:12:35;30.70;;;24.87;;
24259;SDS011;12384;48.112;18.418;2023-02-15T06:15:04;37.37;;;29.03;;
24259;SDS011;12384;48.112;18.418;2023-02-15T06:17:34;36.80;;;28.03;;
24259;SDS011;12384;48.112;18.418;2023-02-15T06:20:02;34.67;;;26.43;;
24259;SDS011;12384;48.112;18.418;2023-02-15T06:22:31;26.67;;;23.60;;
24259;SDS011;12384;48.112;18.418;2023-02-15T06:25:00;32.83;;;26.23;;
24259;SDS011;12384;48.112;18.418;2023-02-15T06:27:28;27.67;;;23.97;;
24259;SDS011;12384;48.112;18.418;2023-02-15T06:29:57;31.50;;;25.07;;
24259;SDS011;12384;48.112;18.418;2023-02-15T06:32:25;38.50;;;30.17;;
24259;SDS011;12384;48.112;18.418;2023-02-15T06:34:55;32.97;;;26.20;;
24259;SDS011;12384;48.112;18.418;2023-02-15T06:37:23;38.87;;;28.73;;
24259;SDS011;12384;48.112;18.418;2023-02-15T06:39:52;34.00;;;25.97;;
24259;SDS011;12384;48.112;18.418;2023-02-15T06:42:20;37.37;;;27.00;;
24259;SDS011;12384;48.112;18.418;2023-02-15T06:44:49;37.07;;;28.50;;
24259;SDS011;12384;48.112;18.418;2023-02-15T06:47:17;39.20;;;28.47;;
24259;SDS011;12384;48.112;18.418;2023-02-15T06:49:46;42.63;;;28.57;;
24259;SDS011;12384;48.112;18.418;2023-02-15T06:52:15;33.20;;;25.97;;
24259;SDS011;12384;48.112;18.418;2023-02-15T06:54:44;33.73;;;26.17;;
24259;SDS011;12384;48.112;18.418;2023-02-15T06:57:12;26.60;;;22.00;;
24259;SDS011;12384;48.112;18.418;2023-02-15T06:59:41;28.33;;;21.70;;
24259;SDS011;12384;48.112;18.418;2023-02-15T07:02:10;24.37;;;21.13;;
24259;SDS011;12384;48.112;18.418;2023-02-15T07:04:40;22.93;;;20.23;;
24259;SDS011;12384;48.112;18.418;2023-02-15T07:07:09;24.40;;;21.80;;
24259;SDS011;12384;48.112;18.418;2023-02-15T07:09:40;26.27;;;23.30;;
24259;SDS011;12384;48.112;18.418;2023-02-15T07:12:09;25.90;;;22.97;;
24259;SDS011;12384;48.112;18.418;2023-02-15T07:14:54;29.53;;;26.43;;
24259;SDS011;12384;48.112;18.418;2023-02-15T07:17:24;30.83;;;27.13;;
24259;SDS011;12384;48.112;18.418;2023-02-15T07:20:03;32.07;;;27.63;;
24259;SDS011;12384;48.112;18.418;2023-02-15T07:22:34;37.57;;;30.27;;
24259;SDS011;12384;48.112;18.418;2023-02-15T07:25:05;37.07;;;32.07;;
24259;SDS011;12384;48.112;18.418;2023-02-15T07:27:35;36.13;;;31.73;;
24259;SDS011;12384;48.112;18.418;2023-02-15T07:30:04;35.03;;;31.07;;
24259;SDS011;12384;48.112;18.418;2023-02-15T07:32:34;33.83;;;28.30;;
24259;SDS011;12384;48.112;18.418;2023-02-15T07:35:03;30.70;;;27.47;;
24259;SDS011;12384;48.112;18.418;2023-02-15T07:37:31;32.27;;;28.83;;
24259;SDS011;12384;48.112;18.418;2023-02-15T07:39:59;28.27;;;25.33;;
24259;SDS011;12384;48.112;18.418;2023-02-15T07:42:31;31.13;;;27.93;;
24259;SDS011;12384;48.112;18.418;2023-02-15T07:44:59;28.40;;;25.60;;
24259;SDS011;12384;48.112;18.418;2023-02-15T07:47:28;28.33;;;25.60;;
24259;SDS011;12384;48.112;18.418;2023-02-15T07:49:56;28.67;;;25.97;;
24259;SDS011;12384;48.112;18.418;2023-02-15T07:52:25;26.53;;;24.03;;
24259;SDS011;12384;48.112;18.418;2023-02-15T07:54:54;30.97;;;27.87;;
24259;SDS011;12384;48.112;18.418;2023-02-15T07:57:22;28.53;;;25.63;;
24259;SDS011;12384;48.112;18.418;2023-02-15T07:59:52;32.97;;;29.07;;
24259;SDS011;12384;48.112;18.418;2023-02-15T08:02:20;30.30;;;27.20;;
24259;SDS011;12384;48.112;18.418;2023-02-15T08:04:49;27.00;;;24.20;;
24259;SDS011;12384;48.112;18.418;2023-02-15T08:07:18;26.87;;;24.23;;
24259;SDS011;12384;48.112;18.418;2023-02-15T08:09:46;24.90;;;22.60;;
24259;SDS011;12384;48.112;18.418;2023-02-15T08:12:15;24.07;;;21.97;;
24259;SDS011;12384;48.112;18.418;2023-02-15T08:14:43;26.80;;;24.20;;
24259;SDS011;12384;48.112;18.418;2023-02-15T08:17:13;27.50;;;24.80;;
24259;SDS011;12384;48.112;18.418;2023-02-15T08:19:41;34.13;;;30.47;;
24259;SDS011;12384;48.112;18.418;2023-02-15T08:22:10;41.30;;;35.83;;
24259;SDS011;12384;48.112;18.418;2023-02-15T08:24:40;48.20;;;39.27;;
24259;SDS011;12384;48.112;18.418;2023-02-15T08:27:09;36.57;;;32.67;;
24259;SDS011;12384;48.112;18.418;2023-02-15T08:29:38;34.73;;;31.20;;
24259;SDS011;12384;48.112;18.418;2023-02-15T08:32:09;31.87;;;28.53;;
24259;SDS011;12384;48.112;18.418;2023-02-15T08:34:40;29.70;;;26.60;;
24259;SDS011;12384;48.112;18.418;2023-02-15T08:37:09;28.60;;;25.87;;
24259;SDS011;12384;48.112;18.418;2023-02-15T08:39:37;27.10;;;24.50;;
24259;SDS011;12384;48.112;18.418;2023-02-15T08:42:06;27.53;;;24.93;;
24259;SDS011;12384;48.112;18.418;2023-02-15T08:44:34;24.93;;;22.77;;
24259;SDS011;12384;48.112;18.418;2023-02-15T08:47:03;21.73;;;19.77;;
24259;SDS011;12384;48.112;18.418;2023-02-15T08:49:31;23.70;;;21.67;;
24259;SDS011;12384;48.112;18.418;2023-02-15T08:52:01;25.50;;;23.30;;
24259;SDS011;12384;48.112;18.418;2023-02-15T08:54:29;25.20;;;23.07;;
24259;SDS011;12384;48.112;18.418;2023-02-15T08:56:58;23.27;;;21.17;;
24259;SDS011;12384;48.112;18.418;2023-02-15T08:59:27;21.10;;;19.30;;
24259;SDS011;12384;48.112;18.418;2023-02-15T09:01:55;32.90;;;29.63;;
24259;SDS011;12384;48.112;18.418;2023-02-15T09:04:24;25.23;;;22.87;;
24259;SDS011;12384;48.112;18.418;2023-02-15T09:06:52;22.13;;;20.07;;
24259;SDS011;12384;48.112;18.418;2023-02-15T09:09:22;22.57;;;20.57;;
24259;SDS011;12384;48.112;18.418;2023-02-15T09:11:51;25.20;;;22.90;;
24259;SDS011;12384;48.112;18.418;2023-02-15T09:14:25;25.40;;;23.20;;
24259;SDS011;12384;48.112;18.418;2023-02-15T09:16:53;24.23;;;22.13;;
24259;SDS011;12384;48.112;18.418;2023-02-15T09:19:22;24.53;;;22.47;;
24259;SDS011;12384;48.112;18.418;2023-02-15T09:21:51;23.07;;;21.07;;
24259;SDS011;12384;48.112;18.418;2023-02-15T09:24:20;22.13;;;20.33;;
24259;SDS011;12384;48.112;18.418;2023-02-15T09:26:50;22.20;;;20.20;;
24259;SDS011;12384;48.112;18.418;2023-02-15T09:29:18;21.57;;;19.77;;
24259;SDS011;12384;48.112;18.418;2023-02-15T09:31:48;19.27;;;17.53;;
24259;SDS011;12384;48.112;18.418;2023-02-15T09:34:18;20.67;;;18.93;;
24259;SDS011;12384;48.112;18.418;2023-02-15T09:36:48;19.10;;;17.50;;
24259;SDS011;12384;48.112;18.418;2023-02-15T09:39:18;20.47;;;18.70;;
24259;SDS011;12384;48.112;18.418;2023-02-15T09:41:57;20.70;;;19.10;;
24259;SDS011;12384;48.112;18.418;2023-02-15T09:48:11;20.02;;;18.13;;
24259;SDS011;12384;48.112;18.418;2023-02-15T09:51:05;23.87;;;21.77;;
24259;SDS011;12384;48.112;18.418;2023-02-15T09:54:02;20.17;;;18.47;;
24259;SDS011;12384;48.112;18.418;2023-02-15T09:56:42;24.30;;;22.00;;
24259;SDS011;12384;48.112;18.418;2023-02-15T09:59:19;22.10;;;20.13;;
24259;SDS011;12384;48.112;18.418;2023-02-15T10:01:56;19.80;;;18.17;;
24259;SDS011;12384;48.112;18.418;2023-02-15T10:04:39;22.60;;;20.70;;
24259;SDS011;12384;48.112;18.418;2023-02-15T10:07:24;22.17;;;20.38;;
24259;SDS011;12384;48.112;18.418;2023-02-15T10:10:05;21.00;;;19.20;;
24259;SDS011;12384;48.112;18.418;2023-02-15T10:12:46;18.10;;;16.67;;
24259;SDS011;12384;48.112;18.418;2023-02-15T10:15:29;31.67;;;28.53;;
24259;SDS011;12384;48.112;18.418;2023-02-15T10:18:17;23.33;;;21.33;;
24259;SDS011;12384;48.112;18.418;2023-02-15T10:21:22;19.35;;;17.75;;
24259;SDS011;12384;48.112;18.418;2023-02-15T10:24:13;20.05;;;18.35;;
24259;SDS011;12384;48.112;18.418;2023-02-15T10:26:58;18.83;;;17.33;;
24259;SDS011;12384;48.112;18.418;2023-02-15T10:29:36;19.98;;;18.33;;
24259;SDS011;12384;48.112;18.418;2023-02-15T10:32:09;18.35;;;16.85;;
24259;SDS011;12384;48.112;18.418;2023-02-15T10:34:50;19.05;;;17.55;;
24259;SDS011;12384;48.112;18.418;2023-02-15T10:40:25;19.98;;;18.38;;
24259;SDS011;12384;48.112;18.418;2023-02-15T10:43:14;20.15;;;18.55;;
24259;SDS011;12384;48.112;18.418;2023-02-15T10:45:54;19.95;;;18.23;;
24259;SDS011;12384;48.112;18.418;2023-02-15T10:48:34;21.43;;;19.63;;
24259;SDS011;12384;48.112;18.418;2023-02-15T10:51:26;18.20;;;16.80;;
24259;SDS011;12384;48.112;18.418;2023-02-15T10:54:06;18.48;;;17.02;;
24259;SDS011;12384;48.112;18.418;2023-02-15T10:56:43;18.23;;;16.80;;
24259;SDS011;12384;48.112;18.418;2023-02-15T10:59:30;21.35;;;19.55;;
24259;SDS011;12384;48.112;18.418;2023-02-15T11:02:17;24.33;;;22.20;;
24259;SDS011;12384;48.112;18.418;2023-02-15T11:04:54;19.23;;;17.73;;
24259;SDS011;12384;48.112;18.418;2023-02-15T11:07:30;17.88;;;16.40;;
24259;SDS011;12384;48.112;18.418;2023-02-15T11:10:05;16.98;;;15.68;;
24259;SDS011;12384;48.112;18.418;2023-02-15T11:12:49;17.63;;;16.33;;
24259;SDS011;12384;48.112;18.418;2023-02-15T11:15:19;17.00;;;15.63;;
24259;SDS011;12384;48.112;18.418;2023-02-15T11:17:55;19.42;;;17.92;;
24259;SDS011;12384;48.112;18.418;2023-02-15T11:20:30;23.10;;;21.10;;
24259;SDS011;12384;48.112;18.418;2023-02-15T11:23:07;18.42;;;17.02;;
24259;SDS011;12384;48.112;18.418;2023-02-15T11:25:43;18.67;;;17.17;;
24259;SDS011;12384;48.112;18.418;2023-02-15T11:28:17;19.38;;;17.85;;
24259;SDS011;12384;48.112;18.418;2023-02-15T11:30:50;18.43;;;16.97;;
24259;SDS011;12384;48.112;18.418;2023-02-15T11:33:23;18.42;;;16.92;;
24259;SDS011;12384;48.112;18.418;2023-02-15T11:35:59;17.98;;;16.58;;
24259;SDS011;12384;48.112;18.418;2023-02-15T11:38:32;22.35;;;20.50;;
24259;SDS011;12384;48.112;18.418;2023-02-15T11:41:02;21.65;;;19.95;;
24259;SDS011;12384;48.112;18.418;2023-02-15T11:43:35;23.73;;;21.70;;
24259;SDS011;12384;48.112;18.418;2023-02-15T11:46:08;19.43;;;17.93;;
24259;SDS011;12384;48.112;18.418;2023-02-15T11:48:40;18.52;;;17.13;;
24259;SDS011;12384;48.112;18.418;2023-02-15T11:51:12;19.10;;;17.52;;
24259;SDS011;12384;48.112;18.418;2023-02-15T11:53:43;19.37;;;17.67;;
24259;SDS011;12384;48.112;18.418;2023-02-15T11:56:13;18.27;;;16.77;;
24259;SDS011;12384;48.112;18.418;2023-02-15T11:58:44;18.53;;;17.13;;
24259;SDS011;12384;48.112;18.418;2023-02-15T12:01:16;19.27;;;17.73;;
24259;SDS011;12384;48.112;18.418;2023-02-15T12:03:50;19.40;;;17.93;;
24259;SDS011;12384;48.112;18.418;2023-02-15T12:06:23;20.10;;;18.23;;
24259;SDS011;12384;48.112;18.418;2023-02-15T12:08:55;17.77;;;16.37;;
24259;SDS011;12384;48.112;18.418;2023-02-15T12:11:33;18.70;;;17.20;;
24259;SDS011;12384;48.112;18.418;2023-02-15T12:14:04;19.57;;;17.97;;
24259;SDS011;12384;48.112;18.418;2023-02-15T12:16:40;18.20;;;16.77;;
24259;SDS011;12384;48.112;18.418;2023-02-15T12:19:13;19.47;;;17.97;;
24259;SDS011;12384;48.112;18.418;2023-02-15T12:21:53;17.77;;;16.37;;
24259;SDS011;12384;48.112;18.418;2023-02-15T12:24:23;17.80;;;16.43;;
24259;SDS011;12384;48.112;18.418;2023-02-15T12:26:58;18.03;;;16.53;;
24259;SDS011;12384;48.112;18.418;2023-02-15T12:29:30;17.83;;;16.50;;
24259;SDS011;12384;48.112;18.418;2023-02-15T12:32:03;19.97;;;18.27;;
24259;SDS011;12384;48.112;18.418;2023-02-15T12:34:36;18.03;;;16.63;;
24259;SDS011;12384;48.112;18.418;2023-02-15T12:37:10;18.52;;;17.05;;
24259;SDS011;12384;48.112;18.418;2023-02-15T12:39:50;19.13;;;17.60;;
24259;SDS011;12384;48.112;18.418;2023-02-15T12:42:21;18.80;;;17.37;;
24259;SDS011;12384;48.112;18.418;2023-02-15T12:44:57;18.60;;;17.13;;
24259;SDS011;12384;48.112;18.418;2023-02-15T12:47:27;19.83;;;18.20;;
24259;SDS011;12384;48.112;18.418;2023-02-15T12:50:13;18.83;;;17.33;;
24259;SDS011;12384;48.112;18.418;2023-02-15T12:52:47;19.00;;;17.53;;
24259;SDS011;12384;48.112;18.418;2023-02-15T12:55:21;17.55;;;16.15;;
24259;SDS011;12384;48.112;18.418;2023-02-15T12:58:08;18.27;;;16.77;;
24259;SDS011;12384;48.112;18.418;2023-02-15T13:00:44;17.23;;;16.02;;
24259;SDS011;12384;48.112;18.418;2023-02-15T13:03:16;17.90;;;16.50;;
24259;SDS011;12384;48.112;18.418;2023-02-15T13:05:46;18.73;;;17.23;;
24259;SDS011;12384;48.112;18.418;2023-02-15T13:08:20;17.05;;;15.75;;
24259;SDS011;12384;48.112;18.418;2023-02-15T13:10:55;19.60;;;17.70;;
24259;SDS011;12384;48.112;18.418;2023-02-15T13:13:27;17.17;;;15.82;;
24259;SDS011;12384;48.112;18.418;2023-02-15T13:15:58;15.85;;;14.65;;
24259;SDS011;12384;48.112;18.418;2023-02-15T13:18:31;17.40;;;16.10;;
24259;SDS011;12384;48.112;18.418;2023-02-15T13:21:04;16.90;;;15.52;;
24259;SDS011;12384;48.112;18.418;2023-02-15T13:23:41;17.45;;;16.15;;
24259;SDS011;12384;48.112;18.418;2023-02-15T13:26:14;16.90;;;15.60;;
24259;SDS011;12384;48.112;18.418;2023-02-15T13:28:47;17.20;;;15.90;;
24259;SDS011;12384;48.112;18.418;2023-02-15T13:31:19;17.10;;;15.80;;
24259;SDS011;12384;48.112;18.418;2023-02-15T13:33:51;16.13;;;14.93;;
24259;SDS011;12384;48.112;18.418;2023-02-15T13:36:23;16.23;;;14.95;;
24259;SDS011;12384;48.112;18.418;2023-02-15T13:39:03;15.52;;;14.43;;
24259;SDS011;12384;48.112;18.418;2023-02-15T13:41:46;15.23;;;14.13;;
24259;SDS011;12384;48.112;18.418;2023-02-15T13:44:22;16.67;;;15.40;;
24259;SDS011;12384;48.112;18.418;2023-02-15T13:47:09;16.98;;;15.68;;
24259;SDS011;12384;48.112;18.418;2023-02-15T13:49:52;18.05;;;16.65;;
24259;SDS011;12384;48.112;18.418;2023-02-15T13:52:33;16.73;;;15.45;;
24259;SDS011;12384;48.112;18.418;2023-02-15T13:55:14;18.73;;;17.33;;
24259;SDS011;12384;48.112;18.418;2023-02-15T13:58:01;18.23;;;16.83;;
24259;SDS011;12384;48.112;18.418;2023-02-15T14:00:41;17.88;;;16.50;;
24259;SDS011;12384;48.112;18.418;2023-02-15T14:03:27;18.10;;;16.75;;
24259;SDS011;12384;48.112;18.418;2023-02-15T14:06:29;17.63;;;16.42;;
24259;SDS011;12384;48.112;18.418;2023-02-15T14:09:15;19.58;;;18.08;;
24259;SDS011;12384;48.112;18.418;2023-02-15T14:11:54;17.73;;;16.35;;
24259;SDS011;12384;48.112;18.418;2023-02-15T14:14:39;16.92;;;15.63;;
24259;SDS011;12384;48.112;18.418;2023-02-15T14:17:35;17.40;;;16.13;;
24259;SDS011;12384;48.112;18.418;2023-02-15T14:20:15;18.17;;;16.77;;
24259;SDS011;12384;48.112;18.418;2023-02-15T14:22:50;18.52;;;17.13;;
24259;SDS011;12384;48.112;18.418;2023-02-15T14:25:27;18.90;;;17.30;;
24259;SDS011;12384;48.112;18.418;2023-02-15T14:28:03;17.65;;;16.35;;
24259;SDS011;12384;48.112;18.418;2023-02-15T14:30:37;17.70;;;16.30;;
24259;SDS011;12384;48.112;18.418;2023-02-15T14:33:08;17.55;;;16.17;;
24259;SDS011;12384;48.112;18.418;2023-02-15T14:35:48;17.70;;;16.30;;
24259;SDS011;12384;48.112;18.418;2023-02-15T14:38:19;17.90;;;16.60;;
24259;SDS011;12384;48.112;18.418;2023-02-15T14:40:58;20.17;;;18.57;;
24259;SDS011;12384;48.112;18.418;2023-02-15T14:43:37;18.80;;;17.40;;
24259;SDS011;12384;48.112;18.418;2023-02-15T14:46:17;19.50;;;18.00;;
24259;SDS011;12384;48.112;18.418;2023-02-15T14:48:53;17.20;;;15.80;;
24259;SDS011;12384;48.112;18.418;2023-02-15T14:57:26;17.67;;;16.27;;
24259;SDS011;12384;48.112;18.418;2023-02-15T15:00:28;17.73;;;16.43;;